State Line, Idaho
Current Conditions -  °F | °C
As of 6:15 AM on Thursday 18 Dec 2014 (Local Time) from KCOE Reporting Station
Overcast Overcast  
Wind Chill: 34°   Ceiling: 400
Heat Index: 34°   Visibility: 5mi
Dew Point: 32°   Wind: 0mph
Humidity: 93%   Direction: NA
Pressure: 29.97"   Gusts: NA
Location:  47.7405°N, 116.957°W
Report Text: KCOE 181415Z AUTO 00000KT 5SM BKN004 BKN017 OVC025 01/00 A2997 RMK AO1
Loading
Personal Weather Stations






























Interactive Weather Map New forecast layout! Learn more

10-Day Weather Forecast

Advertisements
Track Severe Weather on mobile